sensor_id;sensor_type;location;lat;lon;timestamp;P1;durP1;ratioP1;P2;durP2;ratioP2
23712;SDS011;12035;49.978;8.298;2023-07-31T00:04:11;3.75;;;0.90;;
23712;SDS011;12035;49.978;8.298;2023-07-31T00:09:09;4.68;;;1.40;;
23712;SDS011;12035;49.978;8.298;2023-07-31T00:14:07;5.82;;;1.38;;
23712;SDS011;12035;49.978;8.298;2023-07-31T00:19:04;3.75;;;1.27;;
23712;SDS011;12035;49.978;8.298;2023-07-31T00:24:01;4.90;;;1.42;;
23712;SDS011;12035;49.978;8.298;2023-07-31T00:29:00;2.70;;;1.20;;
23712;SDS011;12035;49.978;8.298;2023-07-31T00:33:57;6.15;;;1.50;;
23712;SDS011;12035;49.978;8.298;2023-07-31T00:38:54;4.50;;;1.35;;
23712;SDS011;12035;49.978;8.298;2023-07-31T00:43:51;3.25;;;1.25;;
23712;SDS011;12035;49.978;8.298;2023-07-31T00:48:49;3.22;;;1.50;;
23712;SDS011;12035;49.978;8.298;2023-07-31T00:53:46;5.10;;;1.45;;
23712;SDS011;12035;49.978;8.298;2023-07-31T00:58:44;4.55;;;1.38;;
23712;SDS011;12035;49.978;8.298;2023-07-31T01:03:41;3.55;;;1.35;;
23712;SDS011;12035;49.978;8.298;2023-07-31T01:08:41;3.58;;;1.40;;
23712;SDS011;12035;49.978;8.298;2023-07-31T01:13:44;6.43;;;1.60;;
23712;SDS011;12035;49.978;8.298;2023-07-31T01:18:42;3.83;;;1.70;;
23712;SDS011;12035;49.978;8.298;2023-07-31T01:23:49;5.72;;;1.60;;
23712;SDS011;12035;49.978;8.298;2023-07-31T01:29:08;3.08;;;1.20;;
23712;SDS011;12035;49.978;8.298;2023-07-31T01:39:10;6.38;;;1.40;;
23712;SDS011;12035;49.978;8.298;2023-07-31T01:44:09;5.20;;;1.77;;
23712;SDS011;12035;49.978;8.298;2023-07-31T01:49:06;6.53;;;1.98;;
23712;SDS011;12035;49.978;8.298;2023-07-31T01:54:03;4.88;;;1.60;;
23712;SDS011;12035;49.978;8.298;2023-07-31T01:59:00;3.72;;;1.50;;
23712;SDS011;12035;49.978;8.298;2023-07-31T02:03:58;5.03;;;1.70;;
23712;SDS011;12035;49.978;8.298;2023-07-31T02:08:56;3.92;;;1.75;;
23712;SDS011;12035;49.978;8.298;2023-07-31T02:13:53;6.35;;;1.85;;
23712;SDS011;12035;49.978;8.298;2023-07-31T02:18:50;5.43;;;1.60;;
23712;SDS011;12035;49.978;8.298;2023-07-31T02:23:49;5.15;;;1.92;;
23712;SDS011;12035;49.978;8.298;2023-07-31T02:28:46;2.70;;;1.48;;
23712;SDS011;12035;49.978;8.298;2023-07-31T02:33:43;5.65;;;1.75;;
23712;SDS011;12035;49.978;8.298;2023-07-31T02:38:40;6.15;;;1.70;;
23712;SDS011;12035;49.978;8.298;2023-07-31T02:43:38;5.90;;;1.90;;
23712;SDS011;12035;49.978;8.298;2023-07-31T02:48:35;3.38;;;1.60;;
23712;SDS011;12035;49.978;8.298;2023-07-31T02:53:32;4.47;;;1.83;;
23712;SDS011;12035;49.978;8.298;2023-07-31T02:58:29;6.60;;;1.90;;
23712;SDS011;12035;49.978;8.298;2023-07-31T03:03:28;7.88;;;1.88;;
23712;SDS011;12035;49.978;8.298;2023-07-31T03:08:25;5.97;;;1.77;;
23712;SDS011;12035;49.978;8.298;2023-07-31T03:13:22;6.43;;;2.05;;
23712;SDS011;12035;49.978;8.298;2023-07-31T03:18:19;4.03;;;1.80;;
23712;SDS011;12035;49.978;8.298;2023-07-31T03:23:18;12.18;;;4.07;;
23712;SDS011;12035;49.978;8.298;2023-07-31T03:28:15;8.15;;;3.00;;
23712;SDS011;12035;49.978;8.298;2023-07-31T03:33:12;5.35;;;2.28;;
23712;SDS011;12035;49.978;8.298;2023-07-31T03:38:09;8.07;;;1.95;;
23712;SDS011;12035;49.978;8.298;2023-07-31T03:43:07;7.53;;;1.70;;
23712;SDS011;12035;49.978;8.298;2023-07-31T03:48:04;5.05;;;1.70;;
23712;SDS011;12035;49.978;8.298;2023-07-31T03:53:02;7.97;;;1.90;;
23712;SDS011;12035;49.978;8.298;2023-07-31T03:57:59;5.38;;;1.90;;
23712;SDS011;12035;49.978;8.298;2023-07-31T04:02:58;5.00;;;1.77;;
23712;SDS011;12035;49.978;8.298;2023-07-31T04:07:55;5.60;;;1.70;;
23712;SDS011;12035;49.978;8.298;2023-07-31T04:12:52;5.57;;;2.05;;
23712;SDS011;12035;49.978;8.298;2023-07-31T04:17:49;6.30;;;1.42;;
23712;SDS011;12035;49.978;8.298;2023-07-31T04:22:48;4.82;;;1.90;;
23712;SDS011;12035;49.978;8.298;2023-07-31T04:27:45;4.95;;;1.80;;
23712;SDS011;12035;49.978;8.298;2023-07-31T04:32:42;3.50;;;1.65;;
23712;SDS011;12035;49.978;8.298;2023-07-31T04:37:39;2.97;;;1.60;;
23712;SDS011;12035;49.978;8.298;2023-07-31T04:42:38;5.97;;;2.03;;
23712;SDS011;12035;49.978;8.298;2023-07-31T04:47:35;7.43;;;1.95;;
23712;SDS011;12035;49.978;8.298;2023-07-31T04:52:32;7.70;;;1.83;;
23712;SDS011;12035;49.978;8.298;2023-07-31T04:57:29;5.75;;;1.73;;
23712;SDS011;12035;49.978;8.298;2023-07-31T05:02:27;4.22;;;1.60;;
23712;SDS011;12035;49.978;8.298;2023-07-31T05:07:24;6.57;;;1.70;;
23712;SDS011;12035;49.978;8.298;2023-07-31T05:12:21;3.95;;;1.73;;
23712;SDS011;12035;49.978;8.298;2023-07-31T05:17:18;6.88;;;2.05;;
23712;SDS011;12035;49.978;8.298;2023-07-31T05:22:17;7.22;;;2.47;;
23712;SDS011;12035;49.978;8.298;2023-07-31T05:27:14;4.07;;;1.77;;
23712;SDS011;12035;49.978;8.298;2023-07-31T05:32:13;5.90;;;1.90;;
23712;SDS011;12035;49.978;8.298;2023-07-31T05:37:10;3.95;;;1.60;;
23712;SDS011;12035;49.978;8.298;2023-07-31T05:42:09;5.38;;;2.10;;
23712;SDS011;12035;49.978;8.298;2023-07-31T05:47:06;5.63;;;2.00;;
23712;SDS011;12035;49.978;8.298;2023-07-31T05:52:03;5.25;;;1.95;;
23712;SDS011;12035;49.978;8.298;2023-07-31T05:57:01;4.97;;;1.90;;
23712;SDS011;12035;49.978;8.298;2023-07-31T06:02:00;6.50;;;1.88;;
23712;SDS011;12035;49.978;8.298;2023-07-31T06:06:57;3.25;;;1.80;;
23712;SDS011;12035;49.978;8.298;2023-07-31T06:11:54;3.63;;;1.60;;
23712;SDS011;12035;49.978;8.298;2023-07-31T06:16:51;6.90;;;2.00;;
23712;SDS011;12035;49.978;8.298;2023-07-31T06:21:49;4.88;;;2.13;;
23712;SDS011;12035;49.978;8.298;2023-07-31T06:26:46;3.78;;;1.65;;
23712;SDS011;12035;49.978;8.298;2023-07-31T06:31:45;5.90;;;2.05;;
23712;SDS011;12035;49.978;8.298;2023-07-31T06:36:43;8.05;;;2.28;;
23712;SDS011;12035;49.978;8.298;2023-07-31T06:41:41;5.10;;;1.85;;
23712;SDS011;12035;49.978;8.298;2023-07-31T06:46:39;4.93;;;1.98;;
23712;SDS011;12035;49.978;8.298;2023-07-31T06:51:36;4.47;;;1.90;;
23712;SDS011;12035;49.978;8.298;2023-07-31T06:56:33;5.45;;;1.98;;
23712;SDS011;12035;49.978;8.298;2023-07-31T07:01:31;5.18;;;1.98;;
23712;SDS011;12035;49.978;8.298;2023-07-31T07:06:29;3.85;;;1.83;;
23712;SDS011;12035;49.978;8.298;2023-07-31T07:11:26;5.93;;;1.90;;
23712;SDS011;12035;49.978;8.298;2023-07-31T07:16:23;5.03;;;2.03;;
23712;SDS011;12035;49.978;8.298;2023-07-31T07:21:21;6.30;;;1.80;;
23712;SDS011;12035;49.978;8.298;2023-07-31T07:26:18;5.00;;;1.80;;
23712;SDS011;12035;49.978;8.298;2023-07-31T07:31:16;7.25;;;2.00;;
23712;SDS011;12035;49.978;8.298;2023-07-31T07:36:13;3.80;;;1.80;;
23712;SDS011;12035;49.978;8.298;2023-07-31T07:41:11;5.43;;;2.00;;
23712;SDS011;12035;49.978;8.298;2023-07-31T07:46:08;6.63;;;1.98;;
23712;SDS011;12035;49.978;8.298;2023-07-31T07:51:05;6.10;;;2.00;;
23712;SDS011;12035;49.978;8.298;2023-07-31T07:56:02;7.15;;;2.10;;
23712;SDS011;12035;49.978;8.298;2023-07-31T08:01:01;5.00;;;1.80;;
23712;SDS011;12035;49.978;8.298;2023-07-31T08:05:58;6.13;;;1.80;;
23712;SDS011;12035;49.978;8.298;2023-07-31T08:10:55;3.40;;;1.75;;
23712;SDS011;12035;49.978;8.298;2023-07-31T08:15:52;5.43;;;1.85;;
23712;SDS011;12035;49.978;8.298;2023-07-31T08:20:50;4.97;;;2.05;;
23712;SDS011;12035;49.978;8.298;2023-07-31T08:25:47;4.35;;;2.10;;
23712;SDS011;12035;49.978;8.298;2023-07-31T08:30:45;6.53;;;2.13;;
23712;SDS011;12035;49.978;8.298;2023-07-31T08:35:42;4.93;;;2.10;;
23712;SDS011;12035;49.978;8.298;2023-07-31T08:40:41;5.47;;;2.00;;
23712;SDS011;12035;49.978;8.298;2023-07-31T08:45:38;4.15;;;1.73;;
23712;SDS011;12035;49.978;8.298;2023-07-31T08:50:38;5.65;;;1.73;;
23712;SDS011;12035;49.978;8.298;2023-07-31T08:55:35;4.65;;;2.15;;
23712;SDS011;12035;49.978;8.298;2023-07-31T09:00:35;5.78;;;2.13;;
23712;SDS011;12035;49.978;8.298;2023-07-31T09:05:33;5.78;;;2.22;;
23712;SDS011;12035;49.978;8.298;2023-07-31T09:10:35;5.25;;;2.22;;
23712;SDS011;12035;49.978;8.298;2023-07-31T09:15:32;5.43;;;2.17;;
23712;SDS011;12035;49.978;8.298;2023-07-31T09:20:31;7.78;;;2.25;;
23712;SDS011;12035;49.978;8.298;2023-07-31T09:25:29;8.70;;;2.08;;
23712;SDS011;12035;49.978;8.298;2023-07-31T09:30:26;7.68;;;2.25;;
23712;SDS011;12035;49.978;8.298;2023-07-31T09:35:27;4.28;;;1.98;;
23712;SDS011;12035;49.978;8.298;2023-07-31T09:40:27;7.28;;;2.05;;
23712;SDS011;12035;49.978;8.298;2023-07-31T09:45:25;4.47;;;1.85;;
23712;SDS011;12035;49.978;8.298;2023-07-31T09:50:24;6.38;;;2.20;;
23712;SDS011;12035;49.978;8.298;2023-07-31T09:55:21;8.02;;;2.30;;
23712;SDS011;12035;49.978;8.298;2023-07-31T10:00:20;5.05;;;2.08;;
23712;SDS011;12035;49.978;8.298;2023-07-31T10:05:20;6.60;;;2.25;;
23712;SDS011;12035;49.978;8.298;2023-07-31T10:10:17;6.30;;;2.30;;
23712;SDS011;12035;49.978;8.298;2023-07-31T10:15:17;4.70;;;2.10;;
23712;SDS011;12035;49.978;8.298;2023-07-31T10:20:16;7.38;;;2.33;;
23712;SDS011;12035;49.978;8.298;2023-07-31T10:25:14;4.95;;;2.30;;
23712;SDS011;12035;49.978;8.298;2023-07-31T10:30:12;5.20;;;2.35;;
23712;SDS011;12035;49.978;8.298;2023-07-31T10:35:15;4.97;;;2.15;;
23712;SDS011;12035;49.978;8.298;2023-07-31T10:40:16;7.30;;;2.30;;
23712;SDS011;12035;49.978;8.298;2023-07-31T10:45:23;6.35;;;2.25;;
23712;SDS011;12035;49.978;8.298;2023-07-31T10:50:23;6.05;;;2.13;;
23712;SDS011;12035;49.978;8.298;2023-07-31T10:55:24;5.47;;;2.00;;
23712;SDS011;12035;49.978;8.298;2023-07-31T11:00:25;8.07;;;2.38;;
23712;SDS011;12035;49.978;8.298;2023-07-31T11:11:04;5.35;;;2.40;;
23712;SDS011;12035;49.978;8.298;2023-07-31T11:16:03;6.65;;;2.20;;
23712;SDS011;12035;49.978;8.298;2023-07-31T11:21:02;3.85;;;1.98;;
23712;SDS011;12035;49.978;8.298;2023-07-31T11:25:59;6.45;;;2.15;;
23712;SDS011;12035;49.978;8.298;2023-07-31T11:30:57;10.93;;;2.40;;
23712;SDS011;12035;49.978;8.298;2023-07-31T11:35:54;6.88;;;2.58;;
23712;SDS011;12035;49.978;8.298;2023-07-31T11:40:53;4.63;;;2.03;;
23712;SDS011;12035;49.978;8.298;2023-07-31T11:45:53;5.10;;;1.90;;
23712;SDS011;12035;49.978;8.298;2023-07-31T11:50:52;4.13;;;2.03;;
23712;SDS011;12035;49.978;8.298;2023-07-31T11:55:50;6.13;;;2.15;;
23712;SDS011;12035;49.978;8.298;2023-07-31T12:00:49;7.57;;;2.28;;
23712;SDS011;12035;49.978;8.298;2023-07-31T12:05:47;4.22;;;2.13;;
23712;SDS011;12035;49.978;8.298;2023-07-31T12:10:44;5.63;;;2.13;;
23712;SDS011;12035;49.978;8.298;2023-07-31T12:15:44;4.57;;;2.00;;
23712;SDS011;12035;49.978;8.298;2023-07-31T12:20:42;6.40;;;2.30;;
23712;SDS011;12035;49.978;8.298;2023-07-31T12:25:41;3.67;;;2.03;;
23712;SDS011;12035;49.978;8.298;2023-07-31T12:30:38;4.60;;;2.00;;
23712;SDS011;12035;49.978;8.298;2023-07-31T12:35:39;5.10;;;2.05;;
23712;SDS011;12035;49.978;8.298;2023-07-31T12:40:41;4.40;;;2.00;;
23712;SDS011;12035;49.978;8.298;2023-07-31T12:45:38;6.38;;;2.15;;
23712;SDS011;12035;49.978;8.298;2023-07-31T12:50:36;4.93;;;2.38;;
23712;SDS011;12035;49.978;8.298;2023-07-31T12:55:34;4.88;;;2.20;;
23712;SDS011;12035;49.978;8.298;2023-07-31T13:00:31;6.97;;;2.38;;
23712;SDS011;12035;49.978;8.298;2023-07-31T13:05:29;4.47;;;2.15;;
23712;SDS011;12035;49.978;8.298;2023-07-31T13:10:26;6.60;;;2.25;;
23712;SDS011;12035;49.978;8.298;2023-07-31T13:15:26;4.97;;;1.95;;
23712;SDS011;12035;49.978;8.298;2023-07-31T13:20:23;4.68;;;1.90;;
23712;SDS011;12035;49.978;8.298;2023-07-31T13:25:20;3.53;;;1.95;;
23712;SDS011;12035;49.978;8.298;2023-07-31T13:30:17;5.68;;;2.00;;
23712;SDS011;12035;49.978;8.298;2023-07-31T13:35:16;3.15;;;1.70;;
23712;SDS011;12035;49.978;8.298;2023-07-31T13:40:13;4.97;;;1.95;;
23712;SDS011;12035;49.978;8.298;2023-07-31T13:45:10;4.03;;;2.20;;
23712;SDS011;12035;49.978;8.298;2023-07-31T13:50:07;5.82;;;2.08;;
23712;SDS011;12035;49.978;8.298;2023-07-31T13:55:07;3.60;;;1.90;;
23712;SDS011;12035;49.978;8.298;2023-07-31T14:00:05;5.05;;;2.33;;
23712;SDS011;12035;49.978;8.298;2023-07-31T14:05:04;4.30;;;2.30;;
23712;SDS011;12035;49.978;8.298;2023-07-31T14:10:03;6.60;;;2.35;;
23712;SDS011;12035;49.978;8.298;2023-07-31T14:15:02;4.82;;;2.00;;
23712;SDS011;12035;49.978;8.298;2023-07-31T14:20:00;6.68;;;2.40;;
23712;SDS011;12035;49.978;8.298;2023-07-31T14:24:58;5.63;;;2.25;;
23712;SDS011;12035;49.978;8.298;2023-07-31T14:29:55;5.30;;;1.95;;
23712;SDS011;12035;49.978;8.298;2023-07-31T14:34:54;6.05;;;2.20;;
23712;SDS011;12035;49.978;8.298;2023-07-31T14:39:51;6.88;;;1.75;;
23712;SDS011;12035;49.978;8.298;2023-07-31T14:44:48;6.45;;;1.50;;
23712;SDS011;12035;49.978;8.298;2023-07-31T14:49:45;4.50;;;1.40;;
23712;SDS011;12035;49.978;8.298;2023-07-31T14:54:44;3.55;;;1.55;;
23712;SDS011;12035;49.978;8.298;2023-07-31T14:59:41;2.85;;;1.30;;
23712;SDS011;12035;49.978;8.298;2023-07-31T15:04:38;2.42;;;1.40;;
23712;SDS011;12035;49.978;8.298;2023-07-31T15:09:35;5.00;;;1.50;;
23712;SDS011;12035;49.978;8.298;2023-07-31T15:14:34;5.78;;;1.63;;
23712;SDS011;12035;49.978;8.298;2023-07-31T15:19:31;3.13;;;1.30;;
23712;SDS011;12035;49.978;8.298;2023-07-31T15:24:29;3.55;;;1.55;;
23712;SDS011;12035;49.978;8.298;2023-07-31T15:29:27;1.88;;;1.08;;
23712;SDS011;12035;49.978;8.298;2023-07-31T15:34:25;2.33;;;1.25;;
23712;SDS011;12035;49.978;8.298;2023-07-31T15:39:22;4.10;;;1.42;;
23712;SDS011;12035;49.978;8.298;2023-07-31T15:44:19;2.67;;;1.40;;
23712;SDS011;12035;49.978;8.298;2023-07-31T15:49:17;3.22;;;1.48;;
23712;SDS011;12035;49.978;8.298;2023-07-31T15:54:15;2.67;;;1.30;;
23712;SDS011;12035;49.978;8.298;2023-07-31T15:59:13;2.13;;;1.25;;
23712;SDS011;12035;49.978;8.298;2023-07-31T16:04:10;4.07;;;1.30;;
23712;SDS011;12035;49.978;8.298;2023-07-31T16:09:07;3.38;;;1.40;;
23712;SDS011;12035;49.978;8.298;2023-07-31T16:14:07;3.15;;;1.30;;
23712;SDS011;12035;49.978;8.298;2023-07-31T16:19:05;5.95;;;1.30;;
23712;SDS011;12035;49.978;8.298;2023-07-31T16:24:03;2.53;;;1.40;;
23712;SDS011;12035;49.978;8.298;2023-07-31T16:29:00;2.08;;;1.27;;
23712;SDS011;12035;49.978;8.298;2023-07-31T16:33:59;3.83;;;1.45;;
23712;SDS011;12035;49.978;8.298;2023-07-31T16:38:56;3.58;;;1.60;;
23712;SDS011;12035;49.978;8.298;2023-07-31T16:43:53;6.03;;;1.90;;
23712;SDS011;12035;49.978;8.298;2023-07-31T16:48:50;4.97;;;1.80;;
23712;SDS011;12035;49.978;8.298;2023-07-31T16:53:49;3.33;;;1.75;;
23712;SDS011;12035;49.978;8.298;2023-07-31T16:58:46;4.63;;;1.80;;
23712;SDS011;12035;49.978;8.298;2023-07-31T17:03:43;2.97;;;1.50;;
23712;SDS011;12035;49.978;8.298;2023-07-31T17:08:40;3.30;;;1.60;;
23712;SDS011;12035;49.978;8.298;2023-07-31T17:13:38;4.30;;;1.58;;
23712;SDS011;12035;49.978;8.298;2023-07-31T17:18:35;3.90;;;2.00;;
23712;SDS011;12035;49.978;8.298;2023-07-31T17:23:32;4.50;;;1.85;;
23712;SDS011;12035;49.978;8.298;2023-07-31T17:28:30;4.47;;;2.00;;
23712;SDS011;12035;49.978;8.298;2023-07-31T17:33:28;4.50;;;1.75;;
23712;SDS011;12035;49.978;8.298;2023-07-31T17:38:25;3.00;;;1.77;;
23712;SDS011;12035;49.978;8.298;2023-07-31T17:43:22;5.05;;;2.15;;
23712;SDS011;12035;49.978;8.298;2023-07-31T17:48:20;3.83;;;1.83;;
23712;SDS011;12035;49.978;8.298;2023-07-31T17:53:18;3.42;;;1.75;;
23712;SDS011;12035;49.978;8.298;2023-07-31T17:58:15;4.55;;;1.70;;
23712;SDS011;12035;49.978;8.298;2023-07-31T18:03:13;3.10;;;1.67;;
23712;SDS011;12035;49.978;8.298;2023-07-31T18:08:10;4.97;;;1.90;;
23712;SDS011;12035;49.978;8.298;2023-07-31T18:13:09;4.07;;;1.80;;
23712;SDS011;12035;49.978;8.298;2023-07-31T18:18:06;5.75;;;2.00;;
23712;SDS011;12035;49.978;8.298;2023-07-31T18:23:03;5.03;;;2.05;;
23712;SDS011;12035;49.978;8.298;2023-07-31T18:28:01;5.32;;;2.35;;
23712;SDS011;12035;49.978;8.298;2023-07-31T18:32:59;5.47;;;2.10;;
23712;SDS011;12035;49.978;8.298;2023-07-31T18:37:56;4.00;;;2.25;;
23712;SDS011;12035;49.978;8.298;2023-07-31T18:42:54;4.70;;;2.22;;
23712;SDS011;12035;49.978;8.298;2023-07-31T18:47:52;4.07;;;2.30;;
23712;SDS011;12035;49.978;8.298;2023-07-31T18:52:50;6.75;;;2.65;;
23712;SDS011;12035;49.978;8.298;2023-07-31T18:57:47;5.60;;;2.70;;
23712;SDS011;12035;49.978;8.298;2023-07-31T19:02:45;6.72;;;2.80;;
23712;SDS011;12035;49.978;8.298;2023-07-31T19:07:42;6.88;;;2.65;;
23712;SDS011;12035;49.978;8.298;2023-07-31T19:12:40;5.53;;;2.58;;
23712;SDS011;12035;49.978;8.298;2023-07-31T19:17:37;5.28;;;2.40;;
23712;SDS011;12035;49.978;8.298;2023-07-31T19:22:35;5.07;;;2.25;;
23712;SDS011;12035;49.978;8.298;2023-07-31T19:27:32;4.72;;;2.20;;
23712;SDS011;12035;49.978;8.298;2023-07-31T19:32:31;4.13;;;2.10;;
23712;SDS011;12035;49.978;8.298;2023-07-31T19:37:28;4.95;;;2.30;;
23712;SDS011;12035;49.978;8.298;2023-07-31T19:42:26;4.03;;;1.80;;
23712;SDS011;12035;49.978;8.298;2023-07-31T19:47:23;5.10;;;2.10;;
23712;SDS011;12035;49.978;8.298;2023-07-31T19:52:22;4.55;;;2.20;;
23712;SDS011;12035;49.978;8.298;2023-07-31T19:57:19;4.65;;;2.08;;
23712;SDS011;12035;49.978;8.298;2023-07-31T20:02:16;4.43;;;2.35;;
23712;SDS011;12035;49.978;8.298;2023-07-31T20:07:13;3.30;;;1.90;;
23712;SDS011;12035;49.978;8.298;2023-07-31T20:12:12;5.10;;;2.63;;
23712;SDS011;12035;49.978;8.298;2023-07-31T20:17:09;3.47;;;1.90;;
23712;SDS011;12035;49.978;8.298;2023-07-31T20:22:06;6.75;;;2.75;;
23712;SDS011;12035;49.978;8.298;2023-07-31T20:27:03;4.63;;;2.47;;
23712;SDS011;12035;49.978;8.298;2023-07-31T20:32:04;4.32;;;2.50;;
23712;SDS011;12035;49.978;8.298;2023-07-31T20:37:01;5.10;;;2.55;;
23712;SDS011;12035;49.978;8.298;2023-07-31T20:41:58;5.53;;;2.85;;
23712;SDS011;12035;49.978;8.298;2023-07-31T20:46:55;5.45;;;2.97;;
23712;SDS011;12035;49.978;8.298;2023-07-31T20:51:54;6.82;;;2.65;;
23712;SDS011;12035;49.978;8.298;2023-07-31T20:56:51;6.72;;;2.85;;
23712;SDS011;12035;49.978;8.298;2023-07-31T21:01:48;6.20;;;2.65;;
23712;SDS011;12035;49.978;8.298;2023-07-31T21:06:45;6.55;;;3.13;;
23712;SDS011;12035;49.978;8.298;2023-07-31T21:11:43;4.40;;;2.67;;
23712;SDS011;12035;49.978;8.298;2023-07-31T21:16:40;6.22;;;3.03;;
23712;SDS011;12035;49.978;8.298;2023-07-31T21:21:37;9.05;;;3.22;;
23712;SDS011;12035;49.978;8.298;2023-07-31T21:26:34;6.30;;;2.83;;
23712;SDS011;12035;49.978;8.298;2023-07-31T21:31:33;6.82;;;2.80;;
23712;SDS011;12035;49.978;8.298;2023-07-31T21:36:30;5.20;;;2.67;;
23712;SDS011;12035;49.978;8.298;2023-07-31T21:41:27;5.38;;;2.92;;
23712;SDS011;12035;49.978;8.298;2023-07-31T21:46:24;5.57;;;2.97;;
23712;SDS011;12035;49.978;8.298;2023-07-31T21:51:22;4.43;;;2.75;;
23712;SDS011;12035;49.978;8.298;2023-07-31T21:56:19;6.13;;;3.30;;
23712;SDS011;12035;49.978;8.298;2023-07-31T22:01:17;6.00;;;2.80;;
23712;SDS011;12035;49.978;8.298;2023-07-31T22:06:14;6.25;;;3.20;;
23712;SDS011;12035;49.978;8.298;2023-07-31T22:11:12;7.78;;;3.10;;
23712;SDS011;12035;49.978;8.298;2023-07-31T22:16:09;6.78;;;2.75;;
23712;SDS011;12035;49.978;8.298;2023-07-31T22:21:06;7.55;;;3.05;;
23712;SDS011;12035;49.978;8.298;2023-07-31T22:26:03;5.50;;;2.70;;
23712;SDS011;12035;49.978;8.298;2023-07-31T22:31:02;5.63;;;2.80;;
23712;SDS011;12035;49.978;8.298;2023-07-31T22:35:59;5.65;;;2.38;;
23712;SDS011;12035;49.978;8.298;2023-07-31T22:40:56;5.32;;;2.67;;
23712;SDS011;12035;49.978;8.298;2023-07-31T22:45:53;5.43;;;2.45;;
23712;SDS011;12035;49.978;8.298;2023-07-31T22:50:51;5.82;;;2.70;;
23712;SDS011;12035;49.978;8.298;2023-07-31T22:55:48;5.88;;;3.00;;
23712;SDS011;12035;49.978;8.298;2023-07-31T23:00:46;4.50;;;2.30;;
23712;SDS011;12035;49.978;8.298;2023-07-31T23:05:43;5.35;;;2.50;;
23712;SDS011;12035;49.978;8.298;2023-07-31T23:10:42;5.43;;;2.45;;
23712;SDS011;12035;49.978;8.298;2023-07-31T23:15:44;5.53;;;2.53;;
23712;SDS011;12035;49.978;8.298;2023-07-31T23:20:41;5.80;;;2.40;;
23712;SDS011;12035;49.978;8.298;2023-07-31T23:25:47;5.07;;;2.30;;
23712;SDS011;12035;49.978;8.298;2023-07-31T23:30:44;5.63;;;2.47;;
23712;SDS011;12035;49.978;8.298;2023-07-31T23:35:42;6.60;;;2.40;;
23712;SDS011;12035;49.978;8.298;2023-07-31T23:40:40;5.88;;;2.20;;
23712;SDS011;12035;49.978;8.298;2023-07-31T23:45:38;4.68;;;2.28;;
23712;SDS011;12035;49.978;8.298;2023-07-31T23:50:35;5.30;;;2.63;;
23712;SDS011;12035;49.978;8.298;2023-07-31T23:55:32;3.80;;;2.35;;
